Time;durP1;ratioP1;P1;durP2;ratioP2;P2;SDS_P1;SDS_P2;PMS_P1;PMS_P2;Temp;Humidity;BMP_temperature;BMP_pressure;BME280_temperature;BME280_humidity;BME280_pressure;Samples;Min_cycle;Max_cycle;Signal;HPM_P1;HPM_P2
2023/04/10 00:01:09;;;;;;;;;;;8.00;99.90;;;;;;5077075;28;19932;-81
2023/04/10 00:03:37;;;;;;;;;;;8.00;99.90;;;;;;5071841;28;19954;-79
2023/04/10 00:06:06;;;;;;;;;;;8.00;99.90;;;;;;5076379;28;19928;-80
2023/04/10 00:08:33;;;;;;;;;;;8.00;99.90;;;;;;5093588;28;19928;-79
2023/04/10 00:10:59;;;;;;;;;;;8.10;99.90;;;;;;5076582;28;20034;-78
2023/04/10 00:13:26;;;;;;;;;;;8.10;99.90;;;;;;5074554;28;19928;-78
2023/04/10 00:15:53;;;;;;;;;;;8.10;99.90;;;;;;5074943;28;19935;-79
2023/04/10 00:18:20;;;;;;;;;;;8.10;99.90;;;;;;5074965;28;19979;-81
2023/04/10 00:20:50;;;;;;;;;;;8.20;99.90;;;;;;5062454;28;19933;-77
2023/04/10 00:23:17;;;;;;;;;;;8.20;99.90;;;;;;5052793;28;19990;-79
2023/04/10 00:25:44;;;;;;;;;;;8.30;99.90;;;;;;5074837;28;19928;-79
2023/04/10 00:28:11;;;;;;;;;;;8.30;99.90;;;;;;5068758;28;19925;-79
2023/04/10 00:30:38;;;;;;;;;;;8.30;99.90;;;;;;5055514;28;20047;-79
2023/04/10 00:33:05;;;;;;;;;;;8.30;99.90;;;;;;5054764;28;19979;-80
2023/04/10 00:35:32;;;;;;;;;;;8.30;99.90;;;;;;5074862;28;19925;-80
2023/04/10 00:38:01;;;;;;;;;;;8.40;99.90;;;;;;5075814;28;19978;-78
2023/04/10 00:40:29;;;;;;;;;;;8.40;99.90;;;;;;5074846;28;19994;-79
2023/04/10 00:42:55;;;;;;;;;;;8.40;99.90;;;;;;5076497;28;20027;-80
2023/04/10 00:45:22;;;;;;;;;;;8.40;99.90;;;;;;5076188;28;19984;-80
2023/04/10 00:47:49;;;;;;;;;;;8.40;99.90;;;;;;5090561;28;19928;-79
2023/04/10 00:50:16;;;;;;;;;;;8.50;99.90;;;;;;5074578;28;19924;-79
2023/04/10 00:52:43;;;;;;;;;;;8.50;99.90;;;;;;5074204;28;19932;-79
2023/04/10 00:55:12;;;;;;;;;;;8.50;99.90;;;;;;5073796;28;19928;-80
2023/04/10 00:57:40;;;;;;;;;;;8.50;99.90;;;;;;5075566;28;20426;-81
2023/04/10 01:00:07;;;;;;;;;;;8.50;99.90;;;;;;5086814;28;19929;-79
2023/04/10 01:02:34;;;;;;;;;;;8.50;99.90;;;;;;5063738;28;19928;-81
2023/04/10 01:05:01;;;;;;;;;;;8.50;99.90;;;;;;5073456;28;19994;-80
2023/04/10 01:07:34;;;;;;;;;;;8.60;99.90;;;;;;5073986;28;20337;-80
2023/04/10 01:10:05;;;;;;;;;;;8.60;99.90;;;;;;5074009;28;20037;-80
2023/04/10 01:12:40;;;;;;;;;;;8.70;99.90;;;;;;5073805;28;19928;-80
2023/04/10 01:15:10;;;;;;;;;;;8.70;99.90;;;;;;5072802;28;19928;-79
2023/04/10 01:17:40;;;;;;;;;;;8.70;99.90;;;;;;5072851;28;20318;-77
2023/04/10 01:20:09;;;;;;;;;;;8.70;99.90;;;;;;5074944;28;19998;-80
2023/04/10 01:22:41;;;;;;;;;;;8.70;99.90;;;;;;5100990;28;20019;-79
2023/04/10 01:25:17;;;;;;;;;;;8.70;99.90;;;;;;5073689;28;19925;-79
2023/04/10 01:27:49;;;;;;;;;;;8.80;99.90;;;;;;5067614;28;20724;-82
2023/04/10 01:30:19;;;;;;;;;;;8.80;99.90;;;;;;5083558;28;19925;-81
2023/04/10 01:32:46;;;;;;;;;;;8.80;99.90;;;;;;5073607;28;19928;-81
2023/04/10 01:35:15;;;;;;;;;;;8.80;99.90;;;;;;5075319;28;19932;-81
2023/04/10 01:37:43;;;;;;;;;;;8.80;99.90;;;;;;5073282;28;19928;-81
2023/04/10 01:40:13;;;;;;;;;;;8.80;99.90;;;;;;5071352;28;19928;-82
2023/04/10 01:42:43;;;;;;;;;;;8.80;99.90;;;;;;5072335;28;19954;-82
2023/04/10 01:45:13;;;;;;;;;;;8.80;99.90;;;;;;5068874;28;20087;-82
2023/04/10 01:47:42;;;;;;;;;;;8.80;99.90;;;;;;5067857;28;19932;-82
2023/04/10 01:50:11;;;;;;;;;;;8.80;99.90;;;;;;5067196;28;19974;-81
2023/04/10 01:52:41;;;;;;;;;;;8.80;99.90;;;;;;5062546;28;19928;-82
2023/04/10 01:55:21;;;;;;;;;;;8.80;99.90;;;;;;5075134;28;19959;-82
2023/04/10 01:58:17;;;;;;;;;;;8.80;99.90;;;;;;5068367;28;19928;-81
2023/04/10 02:00:44;;;;;;;;;;;8.80;99.90;;;;;;5073674;28;20478;-81
2023/04/10 02:03:14;;;;;;;;;;;8.80;99.90;;;;;;5066786;28;19925;-81
2023/04/10 02:05:46;;;;;;;;;;;8.80;99.90;;;;;;5072642;28;19929;-81
2023/04/10 02:08:15;;;;;;;;;;;8.80;99.90;;;;;;5074803;28;19939;-81
2023/04/10 02:10:45;;;;;;;;;;;8.80;99.90;;;;;;5074024;28;19924;-82
2023/04/10 02:13:14;;;;;;;;;;;8.80;99.90;;;;;;5072122;28;19925;-81
2023/04/10 02:15:43;;;;;;;;;;;8.80;99.90;;;;;;5072117;28;19932;-81
2023/04/10 02:18:11;;;;;;;;;;;8.80;99.90;;;;;;5069281;28;19932;-81
2023/04/10 02:20:39;;;;;;;;;;;8.80;99.90;;;;;;5075117;28;19959;-82
2023/04/10 02:23:06;;;;;;;;;;;8.80;99.90;;;;;;5073584;28;19929;-79
2023/04/10 02:25:33;;;;;;;;;;;8.80;99.90;;;;;;5073065;28;19935;-80
2023/04/10 02:28:03;;;;;;;;;;;8.70;99.90;;;;;;5073160;28;19925;-80
2023/04/10 02:30:32;;;;;;;;;;;8.70;99.90;;;;;;5072567;28;19929;-80
2023/04/10 02:33:00;;;;;;;;;;;8.70;99.90;;;;;;5071894;28;19970;-80
2023/04/10 02:35:28;;;;;;;;;;;8.70;99.90;;;;;;5079829;28;19935;-80
2023/04/10 02:37:57;;;;;;;;;;;8.60;99.90;;;;;;5074045;28;19985;-80
2023/04/10 02:40:24;;;;;;;;;;;8.60;99.90;;;;;;5090356;28;20016;-80
2023/04/10 02:43:17;;;;;;;;;;;8.60;99.90;;;;;;5071902;28;19928;-80
2023/04/10 02:45:46;;;;;;;;;;;8.60;99.90;;;;;;5075962;28;19912;-80
2023/04/10 02:48:18;;;;;;;;;;;8.60;99.90;;;;;;5079372;28;19929;-81
2023/04/10 02:50:55;;;;;;;;;;;8.50;99.90;;;;;;5074454;28;19932;-80
2023/04/10 02:53:26;;;;;;;;;;;8.50;99.90;;;;;;5075015;28;19955;-80
2023/04/10 02:55:57;;;;;;;;;;;8.50;99.90;;;;;;5071491;28;19959;-80
2023/04/10 02:58:24;;;;;;;;;;;8.40;99.90;;;;;;5071166;28;19924;-80
2023/04/10 03:00:54;;;;;;;;;;;8.40;99.90;;;;;;5072766;28;19925;-80
2023/04/10 03:03:37;;;;;;;;;;;8.40;99.90;;;;;;5075945;28;20391;-80
2023/04/10 03:06:04;;;;;;;;;;;8.30;99.90;;;;;;5077305;28;19932;-80
2023/04/10 03:08:35;;;;;;;;;;;8.30;99.90;;;;;;5075585;28;20446;-81
2023/04/10 03:11:03;;;;;;;;;;;8.30;99.90;;;;;;5068700;28;19932;-80
2023/04/10 03:13:30;;;;;;;;;;;8.30;99.90;;;;;;5093841;28;19928;-81
2023/04/10 03:15:57;;;;;;;;;;;8.20;99.90;;;;;;5071444;28;19978;-77
2023/04/10 03:18:24;;;;;;;;;;;8.20;99.90;;;;;;5071105;28;19955;-77
2023/04/10 03:20:53;;;;;;;;;;;8.20;99.90;;;;;;5070932;28;20010;-78
2023/04/10 03:23:21;;;;;;;;;;;8.20;99.90;;;;;;5071015;28;19924;-77
2023/04/10 03:25:52;;;;;;;;;;;8.20;99.90;;;;;;5063191;28;19935;-77
2023/04/10 03:28:21;;;;;;;;;;;8.20;99.90;;;;;;5071157;28;19925;-78
2023/04/10 03:30:48;;;;;;;;;;;8.10;99.90;;;;;;5070149;28;20019;-77
2023/04/10 03:33:14;;;;;;;;;;;8.10;99.90;;;;;;5070684;28;19924;-76
2023/04/10 03:35:41;;;;;;;;;;;8.10;99.90;;;;;;5071006;28;19997;-77
2023/04/10 03:38:08;;;;;;;;;;;8.00;99.90;;;;;;5070497;28;19925;-77
2023/04/10 03:40:36;;;;;;;;;;;8.10;99.90;;;;;;5071289;28;19934;-77
2023/04/10 03:43:06;;;;;;;;;;;8.10;99.90;;;;;;5071272;28;20046;-78
2023/04/10 03:45:34;;;;;;;;;;;8.00;99.90;;;;;;5071002;28;19924;-78
2023/04/10 03:48:02;;;;;;;;;;;8.00;99.90;;;;;;5071250;28;19951;-78
2023/04/10 03:50:39;;;;;;;;;;;8.00;99.90;;;;;;5070583;28;19935;-78
2023/04/10 03:53:06;;;;;;;;;;;7.90;99.90;;;;;;5071549;28;19928;-77
2023/04/10 03:55:33;;;;;;;;;;;7.90;99.90;;;;;;5071207;28;19929;-78
2023/04/10 03:58:00;;;;;;;;;;;7.90;99.90;;;;;;5066514;28;20337;-78
2023/04/10 04:00:32;;;;;;;;;;;7.90;99.90;;;;;;5050542;28;19929;-78
2023/04/10 04:03:07;;;;;;;;;;;7.80;99.90;;;;;;5064009;28;20307;-78
2023/04/10 04:05:55;;;;;;;;;;;7.80;99.90;;;;;;5070480;28;19983;-78
2023/04/10 04:08:38;;;;;;;;;;;7.70;99.90;;;;;;5071407;28;19935;-78
2023/04/10 04:11:38;;;;;;;;;;;7.70;99.90;;;;;;5058193;28;20019;-77
2023/04/10 04:14:13;;;;;;;;;;;7.70;99.90;;;;;;5071303;28;19933;-78
2023/04/10 04:16:47;;;;;;;;;;;7.60;99.90;;;;;;5065877;28;19932;-78
2023/04/10 04:19:49;;;;;;;;;;;7.60;99.90;;;;;;5030168;28;19956;-78
2023/04/10 04:22:37;;;;;;;;;;;7.60;99.90;;;;;;5055127;28;19928;-78
2023/04/10 04:25:07;;;;;;;;;;;7.60;99.90;;;;;;5072364;28;19925;-79
2023/04/10 04:27:54;;;;;;;;;;;7.60;99.90;;;;;;5072575;28;19928;-79
2023/04/10 04:30:44;;;;;;;;;;;7.60;99.90;;;;;;5051399;28;19928;-78
2023/04/10 04:33:28;;;;;;;;;;;7.60;99.90;;;;;;5071912;28;20017;-79
2023/04/10 04:36:01;;;;;;;;;;;7.60;99.90;;;;;;5070966;28;19932;-78
2023/04/10 04:38:40;;;;;;;;;;;7.60;99.90;;;;;;5069268;28;20363;-77
2023/04/10 04:41:24;;;;;;;;;;;7.60;99.90;;;;;;5068319;28;19935;-78
2023/04/10 04:44:08;;;;;;;;;;;7.50;99.90;;;;;;5070118;28;19935;-77
2023/04/10 04:46:52;;;;;;;;;;;7.50;99.90;;;;;;5069916;28;19928;-77
2023/04/10 04:49:30;;;;;;;;;;;7.50;99.90;;;;;;5077194;28;19924;-77
2023/04/10 04:52:09;;;;;;;;;;;7.50;99.90;;;;;;5059392;28;20407;-75
2023/04/10 04:54:56;;;;;;;;;;;7.50;99.90;;;;;;5072395;28;20008;-76
2023/04/10 04:57:37;;;;;;;;;;;7.50;99.90;;;;;;5065202;28;19963;-76
2023/04/10 05:00:21;;;;;;;;;;;7.50;99.90;;;;;;5065591;28;20290;-76
2023/04/10 05:02:57;;;;;;;;;;;7.50;99.90;;;;;;5082872;28;19935;-77
2023/04/10 05:05:35;;;;;;;;;;;7.50;99.90;;;;;;5071207;28;19940;-76
2023/04/10 05:08:28;;;;;;;;;;;7.50;99.90;;;;;;5044430;28;19924;-78
2023/04/10 05:10:58;;;;;;;;;;;7.60;99.90;;;;;;5061046;28;20049;-79
2023/04/10 05:13:54;;;;;;;;;;;7.60;99.90;;;;;;5070353;28;19931;-79
2023/04/10 05:16:33;;;;;;;;;;;7.70;99.90;;;;;;5079080;28;20528;-79
2023/04/10 05:19:16;;;;;;;;;;;7.70;99.90;;;;;;5077363;28;19933;-79
2023/04/10 05:22:10;;;;;;;;;;;7.80;99.90;;;;;;5075243;28;19940;-79
2023/04/10 05:25:06;;;;;;;;;;;7.90;99.90;;;;;;5051961;28;19932;-79
2023/04/10 05:27:45;;;;;;;;;;;8.10;99.90;;;;;;5074703;28;20302;-78
2023/04/10 05:30:46;;;;;;;;;;;8.20;99.90;;;;;;5096117;28;20063;-79
2023/04/10 05:33:32;;;;;;;;;;;8.40;99.90;;;;;;5089017;28;20206;-79
2023/04/10 05:36:09;;;;;;;;;;;8.50;99.90;;;;;;5075423;28;20415;-79
2023/04/10 05:39:00;;;;;;;;;;;8.70;99.90;;;;;;5075732;28;19931;-78
2023/04/10 05:41:41;;;;;;;;;;;9.00;99.90;;;;;;5075474;28;19974;-78
2023/04/10 05:44:29;;;;;;;;;;;9.50;99.90;;;;;;5074303;28;19925;-78
2023/04/10 05:47:04;;;;;;;;;;;10.10;99.90;;;;;;5073126;28;20369;-78
2023/04/10 05:49:41;;;;;;;;;;;10.50;99.90;;;;;;5077817;28;19935;-77
2023/04/10 05:52:26;;;;;;;;;;;11.30;99.90;;;;;;5076270;28;20006;-79
2023/04/10 05:55:00;;;;;;;;;;;11.90;99.90;;;;;;5076217;28;19935;-78
2023/04/10 05:57:46;;;;;;;;;;;12.60;99.90;;;;;;5075153;28;19935;-79
2023/04/10 06:00:50;;;;;;;;;;;13.50;99.90;;;;;;5075077;28;19933;-79
2023/04/10 06:03:36;;;;;;;;;;;14.50;99.90;;;;;;5070973;28;19978;-79
2023/04/10 06:06:03;;;;;;;;;;;15.00;99.90;;;;;;5070148;28;19928;-77
2023/04/10 06:08:41;;;;;;;;;;;15.40;99.90;;;;;;5072532;28;19935;-81
2023/04/10 06:11:10;;;;;;;;;;;15.80;99.90;;;;;;5075897;28;20057;-80
2023/04/10 06:13:38;;;;;;;;;;;16.40;99.90;;;;;;5076831;28;19950;-80
2023/04/10 06:16:05;;;;;;;;;;;16.90;99.90;;;;;;5075640;28;20295;-79
2023/04/10 06:18:33;;;;;;;;;;;16.80;99.90;;;;;;5070318;28;20425;-78
2023/04/10 06:21:00;;;;;;;;;;;16.50;99.90;;;;;;5071473;28;19928;-82
2023/04/10 06:23:29;;;;;;;;;;;16.30;99.90;;;;;;5083960;28;19925;-80
2023/04/10 06:25:57;;;;;;;;;;;16.20;99.90;;;;;;5075574;28;19928;-79
2023/04/10 06:28:34;;;;;;;;;;;16.40;99.90;;;;;;5075269;28;20256;-79
2023/04/10 06:31:03;;;;;;;;;;;16.60;99.90;;;;;;5073266;28;20022;-80
2023/04/10 06:33:35;;;;;;;;;;;17.20;99.90;;;;;;5065661;28;19929;-81
2023/04/10 06:36:04;;;;;;;;;;;17.80;99.90;;;;;;5075002;28;19940;-80
2023/04/10 06:38:36;;;;;;;;;;;18.40;99.90;;;;;;5091435;28;20929;-80
2023/04/10 06:41:04;;;;;;;;;;;19.00;99.50;;;;;;5073238;28;19946;-79
2023/04/10 06:43:34;;;;;;;;;;;19.60;97.60;;;;;;5077217;28;19975;-80
2023/04/10 06:46:01;;;;;;;;;;;19.90;97.30;;;;;;5091858;28;21336;-80
2023/04/10 06:48:28;;;;;;;;;;;20.30;96.20;;;;;;5073284;28;19929;-79
2023/04/10 06:50:55;;;;;;;;;;;20.90;95.80;;;;;;5075489;28;20003;-81
2023/04/10 06:53:22;;;;;;;;;;;21.40;93.90;;;;;;5077280;28;20375;-81
2023/04/10 06:55:50;;;;;;;;;;;21.60;92.70;;;;;;5076583;28;19924;-80
2023/04/10 06:58:18;;;;;;;;;;;21.40;91.50;;;;;;5077587;28;19990;-80
2023/04/10 07:00:47;;;;;;;;;;;20.70;90.90;;;;;;5077688;28;19931;-80
2023/04/10 07:03:14;;;;;;;;;;;19.80;91.30;;;;;;5078226;28;19972;-80
2023/04/10 07:05:40;;;;;;;;;;;19.20;90.70;;;;;;5076027;28;19979;-80
2023/04/10 07:08:13;;;;;;;;;;;18.70;91.40;;;;;;5073862;28;20353;-80
2023/04/10 07:10:42;;;;;;;;;;;18.60;92.40;;;;;;5077441;28;19972;-79
2023/04/10 07:13:09;;;;;;;;;;;18.80;92.00;;;;;;5074808;28;19928;-80
2023/04/10 07:15:36;;;;;;;;;;;19.30;92.50;;;;;;5078786;28;19976;-80
2023/04/10 07:18:05;;;;;;;;;;;19.90;92.40;;;;;;5074950;28;20415;-80
2023/04/10 07:20:32;;;;;;;;;;;20.20;92.00;;;;;;5091925;28;20394;-79
2023/04/10 07:23:00;;;;;;;;;;;20.20;90.40;;;;;;5078377;28;19929;-81
2023/04/10 07:25:27;;;;;;;;;;;20.10;91.10;;;;;;5079183;28;19928;-80
2023/04/10 07:27:55;;;;;;;;;;;20.00;90.00;;;;;;5079163;28;20411;-79
2023/04/10 07:30:23;;;;;;;;;;;19.80;90.00;;;;;;5075859;28;19924;-79
2023/04/10 07:32:50;;;;;;;;;;;19.60;90.00;;;;;;5075762;28;19932;-79
2023/04/10 07:35:19;;;;;;;;;;;19.20;89.60;;;;;;5076562;28;19929;-79
2023/04/10 07:37:50;;;;;;;;;;;18.80;90.10;;;;;;5071145;28;20031;-78
2023/04/10 07:40:17;;;;;;;;;;;18.40;90.30;;;;;;5070801;28;19928;-78
2023/04/10 07:42:44;;;;;;;;;;;18.20;90.60;;;;;;5068039;28;19928;-78
2023/04/10 07:45:11;;;;;;;;;;;18.20;90.70;;;;;;5086463;28;20437;-79
2023/04/10 07:47:38;;;;;;;;;;;18.20;90.30;;;;;;5087746;28;19929;-79
2023/04/10 07:50:06;;;;;;;;;;;18.30;90.60;;;;;;5086674;28;19932;-77
2023/04/10 07:52:40;;;;;;;;;;;18.60;90.30;;;;;;5071447;28;20377;-77
2023/04/10 07:55:08;;;;;;;;;;;18.90;90.20;;;;;;5072176;28;19936;-77
2023/04/10 07:57:35;;;;;;;;;;;19.10;90.20;;;;;;5072362;28;19929;-78
2023/04/10 08:00:02;;;;;;;;;;;19.40;89.00;;;;;;5071847;28;19928;-78
2023/04/10 08:02:40;;;;;;;;;;;19.90;89.50;;;;;;5067775;28;19928;-79
2023/04/10 08:05:07;;;;;;;;;;;20.40;90.60;;;;;;5085203;28;19932;-79
2023/04/10 08:07:35;;;;;;;;;;;21.00;89.70;;;;;;5084866;28;19933;-81
2023/04/10 08:10:04;;;;;;;;;;;21.10;86.80;;;;;;5088621;28;19932;-81
2023/04/10 08:12:33;;;;;;;;;;;21.00;84.90;;;;;;5080314;28;19962;-81
2023/04/10 08:14:59;;;;;;;;;;;20.70;83.80;;;;;;5067108;28;20003;-81
2023/04/10 08:17:26;;;;;;;;;;;20.40;84.00;;;;;;5064358;28;20417;-82
2023/04/10 08:19:54;;;;;;;;;;;20.10;85.90;;;;;;5061841;28;19930;-80
2023/04/10 08:22:22;;;;;;;;;;;20.30;86.10;;;;;;5077955;28;19947;-82
2023/04/10 08:24:49;;;;;;;;;;;20.50;84.90;;;;;;5056157;28;19933;-80
2023/04/10 08:27:17;;;;;;;;;;;20.60;83.30;;;;;;5060509;28;19949;-79
2023/04/10 08:29:44;;;;;;;;;;;20.50;84.10;;;;;;5071384;28;20013;-80
2023/04/10 08:32:12;;;;;;;;;;;20.50;83.60;;;;;;5072039;28;19977;-80
2023/04/10 08:34:39;;;;;;;;;;;20.50;84.20;;;;;;5056052;28;19950;-80
2023/04/10 08:37:06;;;;;;;;;;;20.40;82.80;;;;;;5052676;28;20015;-79
2023/04/10 08:39:34;;;;;;;;;;;20.20;84.40;;;;;;5052996;28;19988;-82
2023/04/10 08:42:02;;;;;;;;;;;20.20;84.20;;;;;;5069797;28;19925;-83
2023/04/10 08:44:30;;;;;;;;;;;20.20;83.20;;;;;;5068863;28;20039;-81
2023/04/10 08:47:00;;;;;;;;;;;20.20;85.00;;;;;;5065572;28;19932;-81
2023/04/10 08:49:31;;;;;;;;;;;20.30;85.70;;;;;;5061885;28;19936;-81
2023/04/10 08:51:58;;;;;;;;;;;20.30;85.00;;;;;;5078173;28;19934;-80
2023/04/10 08:54:27;;;;;;;;;;;20.20;83.90;;;;;;5071917;28;19960;-81
2023/04/10 08:56:55;;;;;;;;;;;20.00;82.90;;;;;;5074877;28;19936;-82
2023/04/10 08:59:22;;;;;;;;;;;19.70;82.70;;;;;;5082281;28;19929;-82
2023/04/10 09:01:50;;;;;;;;;;;19.40;82.20;;;;;;5059725;28;19947;-82
2023/04/10 09:04:17;;;;;;;;;;;19.00;82.30;;;;;;5054806;28;20345;-79
2023/04/10 09:06:44;;;;;;;;;;;18.60;83.80;;;;;;5056280;28;20104;-79
2023/04/10 09:09:11;;;;;;;;;;;18.40;84.60;;;;;;5056234;28;20344;-79
2023/04/10 09:12:01;;;;;;;;;;;18.40;85.70;;;;;;5055243;28;19924;-79
2023/04/10 09:14:29;;;;;;;;;;;18.50;86.00;;;;;;5043377;28;19964;-79
2023/04/10 09:17:12;;;;;;;;;;;18.80;85.90;;;;;;5040897;28;22395;-79
2023/04/10 09:19:48;;;;;;;;;;;19.10;87.90;;;;;;5044372;28;19940;-79
2023/04/10 09:22:18;;;;;;;;;;;19.60;88.40;;;;;;5023476;28;21451;-80
2023/04/10 09:24:48;;;;;;;;;;;19.90;86.60;;;;;;5030664;28;19935;-79
2023/04/10 09:27:31;;;;;;;;;;;20.20;85.60;;;;;;5030039;28;20571;-80
2023/04/10 09:29:59;;;;;;;;;;;20.30;84.40;;;;;;5023355;28;19928;-80
2023/04/10 09:32:40;;;;;;;;;;;20.30;84.20;;;;;;5045171;28;19928;-80
2023/04/10 09:35:15;;;;;;;;;;;20.20;83.30;;;;;;5048335;28;20014;-81
2023/04/10 09:37:44;;;;;;;;;;;20.00;82.80;;;;;;5051366;28;19928;-79
2023/04/10 09:40:19;;;;;;;;;;;19.90;82.30;;;;;;5052161;28;19936;-79
2023/04/10 09:42:47;;;;;;;;;;;19.60;82.50;;;;;;5049367;28;22572;-79
2023/04/10 09:45:18;;;;;;;;;;;19.40;83.40;;;;;;5062221;28;19932;-79
2023/04/10 09:48:00;;;;;;;;;;;19.30;83.40;;;;;;5041359;28;20382;-79
2023/04/10 09:50:34;;;;;;;;;;;19.30;83.90;;;;;;5057804;28;19928;-79
2023/04/10 09:53:01;;;;;;;;;;;19.50;83.30;;;;;;5064900;28;19963;-80
2023/04/10 09:55:28;;;;;;;;;;;19.50;83.30;;;;;;5062646;28;19950;-80
2023/04/10 09:57:55;;;;;;;;;;;19.50;83.90;;;;;;5071955;28;19928;-80
2023/04/10 10:00:22;;;;;;;;;;;19.60;84.00;;;;;;5073830;28;19928;-78
2023/04/10 10:02:50;;;;;;;;;;;19.70;83.90;;;;;;5069026;28;19935;-79
2023/04/10 10:05:19;;;;;;;;;;;19.70;83.00;;;;;;5066495;28;19968;-79
2023/04/10 10:07:46;;;;;;;;;;;19.70;83.30;;;;;;5071718;28;19940;-80
2023/04/10 10:10:14;;;;;;;;;;;19.70;83.80;;;;;;5064435;28;20013;-80
2023/04/10 10:12:44;;;;;;;;;;;19.90;84.10;;;;;;5059382;28;19929;-80
2023/04/10 10:15:14;;;;;;;;;;;20.00;82.90;;;;;;5072665;28;20522;-79
2023/04/10 10:17:43;;;;;;;;;;;20.00;83.40;;;;;;5063641;28;19934;-80
2023/04/10 10:20:11;;;;;;;;;;;20.10;83.20;;;;;;5069349;28;19932;-80
2023/04/10 10:22:40;;;;;;;;;;;20.20;82.10;;;;;;5083896;28;19936;-80
2023/04/10 10:25:07;;;;;;;;;;;20.10;81.70;;;;;;5060059;28;19932;-80
2023/04/10 10:27:37;;;;;;;;;;;20.00;82.40;;;;;;5065084;28;20725;-79
2023/04/10 10:30:05;;;;;;;;;;;20.10;82.80;;;;;;5064315;28;19928;-81
2023/04/10 10:32:32;;;;;;;;;;;20.20;82.20;;;;;;5065254;28;19996;-80
2023/04/10 10:35:00;;;;;;;;;;;20.30;81.10;;;;;;5061893;28;19935;-81
2023/04/10 10:37:29;;;;;;;;;;;20.40;80.80;;;;;;5082600;28;20007;-81
2023/04/10 10:40:01;;;;;;;;;;;20.40;80.30;;;;;;5070766;28;19929;-82
2023/04/10 10:42:34;;;;;;;;;;;20.50;81.50;;;;;;5060683;28;19933;-79
2023/04/10 10:45:07;;;;;;;;;;;20.70;81.30;;;;;;5070904;28;19963;-81
2023/04/10 10:47:40;;;;;;;;;;;20.80;79.20;;;;;;5074878;28;19932;-79
2023/04/10 10:50:07;;;;;;;;;;;20.70;78.60;;;;;;5069213;28;19975;-81
2023/04/10 10:52:38;;;;;;;;;;;20.60;78.60;;;;;;5071473;28;19934;-81
2023/04/10 10:55:24;;;;;;;;;;;20.60;78.90;;;;;;5065757;28;19929;-80
2023/04/10 10:57:52;;;;;;;;;;;20.60;78.50;;;;;;5066022;28;20285;-81
2023/04/10 11:00:20;;;;;;;;;;;20.70;78.90;;;;;;5062743;28;19928;-81
2023/04/10 11:03:10;;;;;;;;;;;20.70;79.10;;;;;;5067167;28;19928;-81
2023/04/10 11:05:49;;;;;;;;;;;20.70;78.40;;;;;;5061885;28;19937;-81
2023/04/10 11:08:16;;;;;;;;;;;20.70;78.40;;;;;;5063901;28;19928;-80
2023/04/10 11:10:59;;;;;;;;;;;20.70;78.20;;;;;;5061704;28;19955;-80
2023/04/10 11:13:27;;;;;;;;;;;20.70;76.80;;;;;;5068051;28;19928;-80
2023/04/10 11:15:55;;;;;;;;;;;20.70;78.60;;;;;;5066073;28;19996;-80
2023/04/10 11:18:45;;;;;;;;;;;20.80;78.30;;;;;;5078541;28;20364;-81
2023/04/10 11:21:12;;;;;;;;;;;20.90;77.90;;;;;;5088042;28;19929;-80
2023/04/10 11:23:53;;;;;;;;;;;21.00;78.00;;;;;;5080712;28;19954;-81
2023/04/10 11:26:35;;;;;;;;;;;21.10;77.90;;;;;;5077553;28;20194;-81
2023/04/10 11:29:04;;;;;;;;;;;21.20;76.70;;;;;;5078178;28;20263;-81
2023/04/10 11:31:31;;;;;;;;;;;21.30;77.10;;;;;;5077986;28;20023;-81
2023/04/10 11:34:02;;;;;;;;;;;21.20;76.10;;;;;;5078876;28;19936;-81
2023/04/10 11:36:30;;;;;;;;;;;21.20;76.50;;;;;;5078240;28;19928;-80
2023/04/10 11:38:57;;;;;;;;;;;21.20;76.40;;;;;;5076745;28;19935;-80
2023/04/10 11:41:29;;;;;;;;;;;21.10;75.60;;;;;;5078025;28;19931;-80
2023/04/10 11:43:56;;;;;;;;;;;20.90;75.40;;;;;;5094263;28;19982;-81
2023/04/10 11:46:24;;;;;;;;;;;20.90;75.80;;;;;;5079357;28;20014;-80
2023/04/10 11:48:55;;;;;;;;;;;20.80;75.70;;;;;;5075933;28;19925;-80
2023/04/10 11:51:22;;;;;;;;;;;20.80;75.80;;;;;;5075413;28;19999;-80
2023/04/10 11:53:49;;;;;;;;;;;20.70;76.30;;;;;;5076490;28;20038;-80
2023/04/10 11:56:18;;;;;;;;;;;20.70;75.20;;;;;;5061019;28;19925;-79
2023/04/10 11:58:45;;;;;;;;;;;20.60;75.40;;;;;;5066301;28;20279;-80
2023/04/10 12:01:13;;;;;;;;;;;20.60;76.10;;;;;;5075674;28;19932;-80
2023/04/10 12:03:42;;;;;;;;;;;20.70;75.20;;;;;;5076431;28;19944;-79
2023/04/10 12:06:10;;;;;;;;;;;20.80;75.10;;;;;;5072953;28;19928;-79
2023/04/10 12:08:38;;;;;;;;;;;21.00;76.10;;;;;;5088307;28;19982;-79
2023/04/10 12:11:05;;;;;;;;;;;21.20;76.00;;;;;;5075755;28;19954;-79
2023/04/10 12:13:32;;;;;;;;;;;21.30;75.50;;;;;;5077093;28;20460;-79
2023/04/10 12:16:00;;;;;;;;;;;21.30;74.50;;;;;;5076989;28;19985;-79
2023/04/10 12:18:27;;;;;;;;;;;21.20;74.40;;;;;;5075738;28;19978;-80
2023/04/10 12:20:56;;;;;;;;;;;21.20;74.90;;;;;;5074640;28;19929;-80
2023/04/10 12:23:23;;;;;;;;;;;21.20;74.40;;;;;;5075425;28;20011;-79
2023/04/10 12:25:50;;;;;;;;;;;21.10;73.90;;;;;;5075779;28;20367;-80
2023/04/10 12:28:18;;;;;;;;;;;21.00;73.40;;;;;;5063468;28;19978;-79
2023/04/10 12:30:52;;;;;;;;;;;20.80;73.90;;;;;;5064131;28;19924;-80
2023/04/10 12:33:22;;;;;;;;;;;20.70;73.80;;;;;;5074297;28;20024;-80
2023/04/10 12:35:49;;;;;;;;;;;20.60;74.20;;;;;;5076969;28;19929;-80
2023/04/10 12:38:34;;;;;;;;;;;20.40;74.10;;;;;;5076261;28;19933;-79
2023/04/10 12:41:01;;;;;;;;;;;20.40;74.90;;;;;;5065957;28;20509;-80
2023/04/10 12:43:32;;;;;;;;;;;20.50;75.10;;;;;;5074885;28;20509;-80
2023/04/10 12:45:59;;;;;;;;;;;20.80;75.00;;;;;;5080105;28;19973;-80
2023/04/10 12:48:26;;;;;;;;;;;21.00;75.60;;;;;;5085398;28;20035;-80
2023/04/10 12:50:53;;;;;;;;;;;21.30;75.80;;;;;;5063970;28;19940;-80
2023/04/10 12:53:22;;;;;;;;;;;21.50;74.70;;;;;;5069997;28;19939;-80
2023/04/10 12:55:59;;;;;;;;;;;21.60;74.20;;;;;;5077396;28;19955;-79
2023/04/10 12:58:27;;;;;;;;;;;21.60;74.10;;;;;;5074169;28;19924;-78
2023/04/10 13:00:55;;;;;;;;;;;21.60;73.70;;;;;;5076223;28;20007;-79
2023/04/10 13:03:22;;;;;;;;;;;21.50;73.00;;;;;;5076309;28;20302;-80
2023/04/10 13:05:49;;;;;;;;;;;21.40;72.10;;;;;;5076060;28;19935;-80
2023/04/10 13:08:16;;;;;;;;;;;21.30;72.80;;;;;;5076191;28;20425;-79
2023/04/10 13:10:44;;;;;;;;;;;21.30;73.00;;;;;;5064613;28;20284;-80
2023/04/10 13:13:12;;;;;;;;;;;21.20;73.40;;;;;;5076812;28;19928;-81
2023/04/10 13:15:39;;;;;;;;;;;21.20;73.20;;;;;;5076638;28;20004;-78
2023/04/10 13:18:06;;;;;;;;;;;21.20;72.80;;;;;;5073239;28;19925;-79
2023/04/10 13:20:34;;;;;;;;;;;21.20;73.10;;;;;;5062086;28;19924;-79
2023/04/10 13:23:02;;;;;;;;;;;21.00;72.90;;;;;;5072145;28;19978;-78
2023/04/10 13:25:32;;;;;;;;;;;20.90;72.50;;;;;;5062409;28;19929;-79
2023/04/10 13:28:00;;;;;;;;;;;20.60;73.00;;;;;;5073867;28;19936;-79
2023/04/10 13:30:27;;;;;;;;;;;20.50;73.20;;;;;;5072006;28;19928;-80
2023/04/10 13:32:54;;;;;;;;;;;20.40;72.80;;;;;;5073521;28;19959;-80
2023/04/10 13:35:21;;;;;;;;;;;20.20;73.20;;;;;;5075263;28;19928;-80
2023/04/10 13:37:51;;;;;;;;;;;20.30;74.00;;;;;;5076407;28;20418;-79
2023/04/10 13:40:19;;;;;;;;;;;20.20;73.50;;;;;;5073417;28;19924;-79
2023/04/10 13:42:46;;;;;;;;;;;20.20;73.80;;;;;;5075862;28;19929;-80
2023/04/10 13:45:14;;;;;;;;;;;20.30;73.60;;;;;;5076076;28;20382;-79
2023/04/10 13:47:41;;;;;;;;;;;20.20;73.60;;;;;;5073170;28;20496;-80
2023/04/10 13:50:09;;;;;;;;;;;20.20;73.90;;;;;;5062039;28;19928;-78
2023/04/10 13:52:36;;;;;;;;;;;20.20;73.80;;;;;;5072238;28;19939;-79
2023/04/10 13:55:03;;;;;;;;;;;20.40;74.70;;;;;;5076388;28;20324;-79
2023/04/10 13:57:30;;;;;;;;;;;20.50;74.30;;;;;;5075672;28;19929;-80
2023/04/10 13:59:57;;;;;;;;;;;20.60;74.20;;;;;;5076203;28;19931;-81
2023/04/10 14:02:26;;;;;;;;;;;20.80;74.90;;;;;;5075559;28;19931;-80
2023/04/10 14:04:53;;;;;;;;;;;21.00;74.60;;;;;;5076206;28;19924;-80
2023/04/10 14:07:20;;;;;;;;;;;21.20;74.50;;;;;;5077637;28;19925;-83
2023/04/10 14:09:47;;;;;;;;;;;21.30;74.60;;;;;;5081779;28;19999;-82
2023/04/10 14:12:15;;;;;;;;;;;21.20;73.50;;;;;;5076329;28;20012;-83
2023/04/10 14:14:42;;;;;;;;;;;21.00;73.00;;;;;;5087425;28;19932;-83
2023/04/10 14:17:09;;;;;;;;;;;20.90;73.40;;;;;;5082015;28;19940;-83
2023/04/10 14:19:38;;;;;;;;;;;20.90;74.10;;;;;;5080435;28;19928;-82
2023/04/10 14:22:05;;;;;;;;;;;20.90;74.10;;;;;;5092665;28;20361;-82
2023/04/10 14:24:32;;;;;;;;;;;21.00;74.00;;;;;;5093551;28;19928;-82
2023/04/10 14:27:00;;;;;;;;;;;21.10;73.50;;;;;;5080216;28;19932;-83
2023/04/10 14:29:27;;;;;;;;;;;21.10;73.60;;;;;;5096760;28;20245;-82
2023/04/10 14:31:54;;;;;;;;;;;21.20;74.20;;;;;;5080359;28;20155;-83
2023/04/10 14:34:21;;;;;;;;;;;21.30;74.20;;;;;;5079769;28;19931;-83
2023/04/10 14:36:54;;;;;;;;;;;21.50;73.40;;;;;;5079467;28;19929;-84
2023/04/10 14:39:22;;;;;;;;;;;21.50;72.40;;;;;;5079889;28;19940;-83
2023/04/10 14:41:49;;;;;;;;;;;21.50;71.90;;;;;;5080414;28;19932;-83
2023/04/10 14:44:16;;;;;;;;;;;21.40;72.10;;;;;;5080195;28;19932;-83